createdAt,value
2022-08-03T00:01:24.205Z,17.67
2022-08-03T00:03:53.211Z,17.71
2022-08-03T00:06:22.181Z,17.69
2022-08-03T00:08:51.292Z,17.63
2022-08-03T00:11:20.685Z,17.74
2022-08-03T00:13:49.791Z,17.76
2022-08-03T00:16:21.449Z,17.69
2022-08-03T00:18:52.377Z,17.73
2022-08-03T00:21:21.566Z,17.63
2022-08-03T00:23:51.498Z,17.74
2022-08-03T00:26:22.072Z,17.57
2022-08-03T00:28:51.954Z,17.71
2022-08-03T00:31:35.227Z,17.64
2022-08-03T00:34:12.512Z,17.66
2022-08-03T00:36:41.898Z,17.66
2022-08-03T00:39:11.148Z,17.67
2022-08-03T00:41:40.400Z,17.61
2022-08-03T00:44:09.382Z,17.65
2022-08-03T00:46:39.703Z,17.78
2022-08-03T00:49:09.011Z,17.70
2022-08-03T00:51:37.956Z,17.66
2022-08-03T00:54:06.980Z,17.81
2022-08-03T00:56:37.072Z,17.73
2022-08-03T00:59:06.496Z,17.85
2022-08-03T01:01:35.392Z,17.75
2022-08-03T01:04:06.614Z,17.65
2022-08-03T01:06:44.448Z,17.59
2022-08-03T01:09:21.024Z,17.72
2022-08-03T01:12:00.631Z,17.63
2022-08-03T01:14:39.905Z,17.71
2022-08-03T01:17:16.445Z,17.96
2022-08-03T01:19:55.288Z,18.05
2022-08-03T01:23:00.963Z,17.92
2022-08-03T01:25:45.685Z,17.98
2022-08-03T01:28:34.697Z,18.08
2022-08-03T01:31:08.656Z,18.01
2022-08-03T01:33:41.757Z,18.11
2022-08-03T01:36:14.983Z,18.17
2022-08-03T01:38:48.148Z,18.28
2022-08-03T01:41:22.598Z,17.91
2022-08-03T01:44:26.828Z,17.85
2022-08-03T01:46:49.297Z,18.11
2022-08-03T01:49:19.227Z,18.17
2022-08-03T01:52:03.179Z,18.18
2022-08-03T01:54:37.200Z,18.14
2022-08-03T01:57:07.801Z,18.10
2022-08-03T01:59:40.089Z,18.04
2022-08-03T02:02:32.097Z,17.89
2022-08-03T02:05:05.761Z,18.04
2022-08-03T02:07:43.079Z,18.06
2022-08-03T02:10:16.065Z,18.12
2022-08-03T02:13:06.535Z,18.13
2022-08-03T02:15:37.403Z,17.94
2022-08-03T02:18:10.939Z,18.22
2022-08-03T02:20:41.590Z,18.16
2022-08-03T02:23:11.482Z,18.22
2022-08-03T02:25:45.773Z,18.30
2022-08-03T02:28:21.713Z,18.18
2022-08-03T02:30:55.729Z,18.08
2022-08-03T02:33:33.173Z,18.07
2022-08-03T02:36:04.053Z,18.14
2022-08-03T02:38:38.174Z,18.14
2022-08-03T02:41:14.720Z,18.31
2022-08-03T02:44:06.056Z,18.33
2022-08-03T02:46:38.798Z,18.32
2022-08-03T02:49:41.062Z,18.38
2022-08-03T02:52:02.926Z,18.41
2022-08-03T02:54:34.294Z,18.56
2022-08-03T02:57:04.382Z,18.56
2022-08-03T02:59:35.038Z,18.56
2022-08-03T03:02:04.838Z,18.58
2022-08-03T03:04:36.560Z,18.59
2022-08-03T03:07:06.320Z,18.50
2022-08-03T03:09:41.610Z,18.49
2022-08-03T03:13:37.250Z,18.68
2022-08-03T03:16:11.474Z,18.71
2022-08-03T03:18:40.970Z,18.71
2022-08-03T03:21:12.439Z,18.73
2022-08-03T03:23:42.702Z,18.71
2022-08-03T03:26:14.449Z,18.74
2022-08-03T03:28:44.108Z,18.66
2022-08-03T03:31:13.755Z,18.78
2022-08-03T03:33:42.767Z,18.71
2022-08-03T03:36:13.725Z,18.86
2022-08-03T03:38:43.389Z,18.78
2022-08-03T03:41:12.919Z,19.05
2022-08-03T03:43:42.477Z,19.02
2022-08-03T03:46:14.413Z,18.97
2022-08-03T03:48:43.796Z,19.07
2022-08-03T03:51:15.022Z,19.19
2022-08-03T03:53:57.341Z,19.14
2022-08-03T03:56:26.867Z,19.29
2022-08-03T03:58:56.357Z,19.33
2022-08-03T04:01:25.805Z,19.30
2022-08-03T04:03:55.067Z,19.34
2022-08-03T04:06:43.062Z,19.49
2022-08-03T04:09:30.600Z,19.59
2022-08-03T04:12:02.957Z,19.71
2022-08-03T04:14:36.321Z,19.86
2022-08-03T04:17:08.455Z,19.77
2022-08-03T04:19:41.780Z,19.71
2022-08-03T04:22:15.628Z,19.62
2022-08-03T04:24:48.495Z,19.76
2022-08-03T04:27:22.257Z,19.85
2022-08-03T04:29:54.284Z,19.80
2022-08-03T04:32:28.645Z,19.96
2022-08-03T04:34:58.407Z,19.69
2022-08-03T04:37:39.426Z,19.86
2022-08-03T04:40:14.474Z,20.04
2022-08-03T04:42:45.904Z,19.84
2022-08-03T04:45:17.736Z,19.91
2022-08-03T04:47:47.402Z,19.95
2022-08-03T04:50:21.587Z,20.16
2022-08-03T04:53:07.715Z,20.11
2022-08-03T04:55:37.691Z,20.16
2022-08-03T04:58:07.452Z,20.39
2022-08-03T05:00:36.456Z,20.59
2022-08-03T05:03:20.245Z,20.69
2022-08-03T05:06:09.491Z,20.78
2022-08-03T05:08:46.852Z,20.56
2022-08-03T05:11:17.001Z,21.06
2022-08-03T05:13:46.759Z,21.15
2022-08-03T05:16:16.253Z,21.43
2022-08-03T05:18:46.105Z,21.33
2022-08-03T05:21:16.995Z,21.81
2022-08-03T05:23:47.432Z,21.87
2022-08-03T05:26:16.888Z,22.23
2022-08-03T05:28:51.119Z,22.24
2022-08-03T05:31:21.142Z,22.31
2022-08-03T05:33:50.352Z,21.98
2022-08-03T05:36:19.225Z,22.05
2022-08-03T05:38:49.956Z,22.28
2022-08-03T05:41:21.432Z,22.28
2022-08-03T05:43:53.867Z,22.50
2022-08-03T05:46:23.899Z,22.40
2022-08-03T05:48:52.911Z,22.23
2022-08-03T05:51:22.188Z,22.13
2022-08-03T05:53:52.603Z,22.22
2022-08-03T05:56:25.273Z,22.09
2022-08-03T05:58:54.708Z,21.89
2022-08-03T06:01:24.191Z,22.15
2022-08-03T06:03:53.779Z,22.35
2022-08-03T06:06:23.106Z,22.75
2022-08-03T06:08:54.563Z,22.77
2022-08-03T06:11:23.525Z,22.82
2022-08-03T06:13:52.612Z,22.85
2022-08-03T06:16:21.625Z,23.00
2022-08-03T06:18:50.844Z,23.17
2022-08-03T06:21:20.152Z,23.40
2022-08-03T06:23:55.503Z,23.34
2022-08-03T06:26:29.283Z,23.38
2022-08-03T06:28:58.305Z,23.39
2022-08-03T06:31:33.316Z,23.42
2022-08-03T06:34:33.639Z,23.79
2022-08-03T06:37:01.693Z,23.82
2022-08-03T06:39:32.724Z,23.84
2022-08-03T06:42:02.060Z,24.16
2022-08-03T06:44:31.326Z,24.38
2022-08-03T06:47:00.217Z,24.56
2022-08-03T06:49:29.479Z,24.55
2022-08-03T06:52:03.631Z,24.57
2022-08-03T06:54:38.175Z,24.80
2022-08-03T06:57:08.390Z,24.74
2022-08-03T07:00:10.365Z,24.56
2022-08-03T07:02:28.377Z,24.77
2022-08-03T07:04:58.497Z,25.32
2022-08-03T07:07:27.450Z,25.21
2022-08-03T07:09:58.388Z,25.60
2022-08-03T07:12:29.617Z,25.76
2022-08-03T07:15:02.119Z,25.71
2022-08-03T07:17:37.246Z,26.14
2022-08-03T07:20:08.962Z,26.42
2022-08-03T07:22:38.978Z,26.57
2022-08-03T07:25:10.547Z,26.65
2022-08-03T07:27:39.924Z,26.76
2022-08-03T07:30:10.444Z,26.87
2022-08-03T07:32:50.458Z,27.01
2022-08-03T07:35:24.845Z,27.08
2022-08-03T07:37:55.250Z,27.22
2022-08-03T07:40:31.484Z,27.26
2022-08-03T07:43:02.306Z,27.23
2022-08-03T07:45:31.838Z,27.33
2022-08-03T07:48:01.330Z,27.61
2022-08-03T07:50:30.586Z,27.92
2022-08-03T07:52:59.875Z,27.74
2022-08-03T07:55:30.893Z,28.24
2022-08-03T07:58:05.000Z,28.18
2022-08-03T08:00:34.813Z,28.25
2022-08-03T08:03:04.097Z,28.39
2022-08-03T08:05:33.910Z,28.46
2022-08-03T08:08:03.390Z,28.75
2022-08-03T08:10:35.433Z,28.90
2022-08-03T08:13:05.459Z,29.20
2022-08-03T08:15:34.831Z,29.04
2022-08-03T08:18:04.629Z,29.37
2022-08-03T08:20:37.930Z,29.41
2022-08-03T08:23:37.893Z,29.74
2022-08-03T08:25:59.684Z,29.75
2022-08-03T08:28:32.899Z,29.77
2022-08-03T08:31:03.426Z,30.00
2022-08-03T08:34:02.696Z,30.08
2022-08-03T08:36:24.204Z,30.26
2022-08-03T08:38:53.582Z,30.40
2022-08-03T08:41:24.065Z,30.30
2022-08-03T08:44:01.606Z,30.37
2022-08-03T08:46:33.888Z,30.36
2022-08-03T08:49:04.790Z,30.05
2022-08-03T08:51:51.040Z,30.14
2022-08-03T08:54:28.515Z,29.80
2022-08-03T08:57:03.171Z,30.10
2022-08-03T08:59:48.360Z,30.38
2022-08-03T09:02:19.302Z,30.57
2022-08-03T09:04:49.419Z,30.55
2022-08-03T09:07:20.453Z,30.66
2022-08-03T09:10:12.013Z,30.16
2022-08-03T09:12:43.414Z,29.57
2022-08-03T09:15:21.330Z,30.27
2022-08-03T09:17:54.935Z,29.90
2022-08-03T09:20:26.731Z,30.22
2022-08-03T09:22:59.114Z,30.10
2022-08-03T09:25:30.506Z,30.01
2022-08-03T09:28:10.358Z,30.56
2022-08-03T09:30:41.702Z,30.63
2022-08-03T09:33:12.373Z,30.33
2022-08-03T09:35:54.881Z,30.78
2022-08-03T09:38:27.772Z,31.02
2022-08-03T09:41:00.796Z,31.52
2022-08-03T09:43:47.928Z,30.85
2022-08-03T09:46:17.468Z,31.42
2022-08-03T09:48:46.683Z,30.90
2022-08-03T09:51:32.882Z,31.06
2022-08-03T09:54:05.578Z,31.21
2022-08-03T09:56:41.812Z,31.52
2022-08-03T09:59:14.525Z,31.37
2022-08-03T10:01:44.056Z,30.94
2022-08-03T10:04:18.130Z,30.68
2022-08-03T10:07:03.911Z,30.86
2022-08-03T10:09:33.354Z,31.52
2022-08-03T10:12:10.442Z,31.61
2022-08-03T10:14:45.473Z,31.68
2022-08-03T10:17:15.304Z,31.16
2022-08-03T10:19:44.699Z,32.17
2022-08-03T10:22:16.615Z,32.60
2022-08-03T10:24:56.967Z,33.20
2022-08-03T10:27:28.061Z,33.22
2022-08-03T10:30:03.202Z,33.80
2022-08-03T10:32:35.530Z,34.85
2022-08-03T10:35:20.012Z,34.02
2022-08-03T10:37:58.682Z,34.42
2022-08-03T10:40:47.979Z,35.09
2022-08-03T10:43:22.961Z,36.52
2022-08-03T10:45:54.439Z,38.08
2022-08-03T10:48:24.487Z,36.40
2022-08-03T10:50:54.838Z,37.18
2022-08-03T10:53:37.517Z,35.93
2022-08-03T10:56:26.626Z,36.58
2022-08-03T10:59:22.948Z,39.20
2022-08-03T11:02:00.541Z,37.26
2022-08-03T11:04:31.155Z,38.09
2022-08-03T11:07:23.264Z,39.51
2022-08-03T11:09:54.046Z,38.93
2022-08-03T11:12:29.851Z,37.59
2022-08-03T11:15:03.306Z,37.66
2022-08-03T11:18:12.311Z,37.08
2022-08-03T11:20:49.529Z,37.75
2022-08-03T11:24:02.910Z,38.36
2022-08-03T11:26:17.476Z,39.74
2022-08-03T11:28:48.934Z,42.66
2022-08-03T11:31:50.118Z,42.19
2022-08-03T11:34:21.318Z,41.26
2022-08-03T11:37:20.881Z,44.50
2022-08-03T11:39:57.282Z,40.52
2022-08-03T11:42:48.535Z,40.43
2022-08-03T11:45:19.992Z,38.25
2022-08-03T11:47:55.105Z,41.61
2022-08-03T11:50:27.193Z,41.27
2022-08-03T11:52:57.384Z,41.15
2022-08-03T11:55:30.643Z,38.91
2022-08-03T11:59:01.609Z,41.56
2022-08-03T12:00:51.679Z,41.26
2022-08-03T12:03:22.350Z,44.75
2022-08-03T12:05:54.929Z,45.96
2022-08-03T12:08:35.328Z,45.23
2022-08-03T12:11:07.009Z,42.39
2022-08-03T12:14:45.856Z,44.76
2022-08-03T12:16:30.556Z,48.24
2022-08-03T12:19:01.673Z,47.14
2022-08-03T12:21:33.508Z,45.51
2022-08-03T12:24:04.536Z,47.14
2022-08-03T12:26:59.506Z,42.86
2022-08-03T12:29:29.632Z,43.06
2022-08-03T12:31:59.090Z,40.49
2022-08-03T12:34:47.452Z,37.28
2022-08-03T12:37:22.482Z,39.40
2022-08-03T12:40:02.648Z,43.60
2022-08-03T12:42:35.715Z,47.80
2022-08-03T12:45:20.034Z,43.36
2022-08-03T13:09:42.334Z,42.65
2022-08-03T13:12:13.612Z,43.12
2022-08-03T13:14:43.238Z,43.69
2022-08-03T13:17:12.369Z,42.40
2022-08-03T13:19:42.173Z,42.76
2022-08-03T13:22:15.683Z,41.96
2022-08-03T13:24:47.396Z,43.40
2022-08-03T13:27:58.911Z,44.23
2022-08-03T13:30:06.723Z,45.27
2022-08-03T13:32:37.179Z,42.65
2022-08-03T13:35:07.923Z,44.62
2022-08-03T13:37:38.951Z,42.73
2022-08-03T13:40:11.673Z,45.39
2022-08-03T13:42:41.051Z,44.84
2022-08-03T13:45:11.497Z,43.76
2022-08-03T13:47:40.572Z,40.74
2022-08-03T13:50:10.177Z,41.86
2022-08-03T13:52:42.047Z,43.48
2022-08-03T13:55:13.190Z,44.81
2022-08-03T13:58:02.295Z,44.21
2022-08-03T14:00:32.080Z,39.90
2022-08-03T14:03:07.976Z,39.56
2022-08-03T14:05:42.383Z,43.16
2022-08-03T14:08:12.390Z,45.79
2022-08-03T14:10:44.937Z,47.15
2022-08-03T14:13:17.447Z,48.64
2022-08-03T14:15:49.945Z,47.53
2022-08-03T14:18:28.691Z,44.96
2022-08-03T14:21:07.301Z,44.56
2022-08-03T14:23:38.589Z,42.82
2022-08-03T14:26:12.003Z,43.80
2022-08-03T14:28:43.075Z,39.85
2022-08-03T14:31:15.505Z,38.95
2022-08-03T14:34:01.549Z,37.63
2022-08-03T14:36:30.722Z,39.74
2022-08-03T14:39:01.583Z,42.11
2022-08-03T14:41:32.620Z,41.32
2022-08-03T14:44:02.562Z,41.65
2022-08-03T14:46:32.250Z,42.00
2022-08-03T14:50:29.294Z,41.10
2022-08-03T14:51:53.613Z,41.18
2022-08-03T14:54:23.877Z,41.62
2022-08-03T14:56:54.491Z,42.26
2022-08-03T14:59:23.528Z,42.35
2022-08-03T15:02:04.587Z,41.47
2022-08-03T15:04:36.786Z,42.92
2022-08-03T15:07:06.546Z,44.54
2022-08-03T15:09:35.581Z,45.63
2022-08-03T15:12:06.577Z,43.50
2022-08-03T15:14:36.170Z,44.03
2022-08-03T15:17:07.067Z,41.74
2022-08-03T15:20:03.088Z,43.08
2022-08-03T15:22:34.441Z,41.89
2022-08-03T15:26:03.894Z,41.22
2022-08-03T15:28:04.035Z,40.81
2022-08-03T15:30:37.215Z,40.31
2022-08-03T15:33:07.082Z,38.90
2022-08-03T15:35:36.328Z,40.79
2022-08-03T15:38:09.193Z,42.12
2022-08-03T15:40:39.600Z,40.80
2022-08-03T15:43:10.467Z,40.30
2022-08-03T15:45:41.943Z,40.22
2022-08-03T15:48:11.327Z,40.97
2022-08-03T15:50:40.939Z,40.09
2022-08-03T15:53:10.071Z,39.75
2022-08-03T15:55:40.706Z,38.85
2022-08-03T15:59:03.801Z,39.27
2022-08-03T16:01:02.196Z,39.45
2022-08-03T16:03:34.440Z,38.29
2022-08-03T16:06:04.810Z,37.32
2022-08-03T16:08:34.560Z,38.56
2022-08-03T16:11:03.551Z,38.25
2022-08-03T16:14:13.257Z,37.94
2022-08-03T16:16:23.436Z,38.38
2022-08-03T16:18:52.537Z,37.93
2022-08-03T16:21:21.895Z,38.09
2022-08-03T16:23:56.787Z,38.09
2022-08-03T16:26:25.946Z,37.41
2022-08-03T16:29:00.241Z,37.19
2022-08-03T16:31:31.555Z,36.47
2022-08-03T16:34:00.841Z,36.64
2022-08-03T16:36:34.749Z,36.46
2022-08-03T16:39:04.150Z,36.58
2022-08-03T16:41:54.455Z,36.16
2022-08-03T16:44:23.853Z,35.31
2022-08-03T16:46:55.892Z,35.41
2022-08-03T16:49:55.433Z,35.34
2022-08-03T16:52:14.380Z,35.48
2022-08-03T16:54:52.577Z,35.08
2022-08-03T16:57:56.116Z,34.45
2022-08-03T17:00:34.311Z,34.52
2022-08-03T17:03:12.770Z,34.39
2022-08-03T17:05:51.009Z,34.37
2022-08-03T17:08:26.482Z,34.36
2022-08-03T17:10:57.337Z,34.39
2022-08-03T17:13:27.696Z,34.19
2022-08-03T17:16:15.181Z,34.02
2022-08-03T17:18:50.081Z,33.71
2022-08-03T17:21:23.733Z,33.64
2022-08-03T17:23:59.016Z,33.10
2022-08-03T17:26:30.478Z,33.01
2022-08-03T17:29:11.257Z,32.68
2022-08-03T17:31:49.753Z,32.45
2022-08-03T17:34:20.038Z,32.31
2022-08-03T17:37:06.009Z,32.01
2022-08-03T17:39:57.762Z,31.80
2022-08-03T17:42:30.363Z,31.87
2022-08-03T17:45:03.627Z,31.83
2022-08-03T17:47:57.719Z,31.54
2022-08-03T17:50:40.371Z,31.35
2022-08-03T17:53:15.240Z,31.22
2022-08-03T17:56:36.166Z,31.26
2022-08-03T17:59:08.239Z,31.15
2022-08-03T18:02:15.269Z,30.87
2022-08-03T18:05:02.726Z,30.68
2022-08-03T18:07:49.635Z,30.40
2022-08-03T18:10:31.129Z,30.27
2022-08-03T18:13:10.504Z,30.28
2022-08-03T18:15:44.879Z,30.09
2022-08-03T18:18:29.229Z,29.90
2022-08-03T18:21:09.435Z,29.72
2022-08-03T18:26:39.576Z,29.28
2022-08-03T18:29:13.364Z,29.02
2022-08-03T18:34:35.254Z,28.70
2022-08-03T18:37:14.435Z,28.75
2022-08-03T18:39:50.179Z,28.58
2022-08-03T18:42:26.283Z,28.60
2022-08-03T18:44:57.084Z,28.29
2022-08-03T18:47:50.581Z,28.26
2022-08-03T18:50:31.916Z,28.09
2022-08-03T18:53:16.514Z,27.95
2022-08-03T18:56:02.228Z,27.86
2022-08-03T18:58:40.617Z,27.73
2022-08-03T19:02:00.976Z,27.66
2022-08-03T19:04:13.782Z,27.42
2022-08-03T19:06:45.947Z,27.27
2022-08-03T19:09:27.873Z,27.24
2022-08-03T19:12:12.526Z,27.17
2022-08-03T19:14:57.705Z,27.10
2022-08-03T19:17:31.804Z,27.09
2022-08-03T19:20:03.793Z,26.96
2022-08-03T19:22:36.901Z,26.97
2022-08-03T19:25:11.966Z,26.94
2022-08-03T19:27:45.525Z,26.74
2022-08-03T19:30:31.293Z,26.59
2022-08-03T19:33:02.149Z,26.33
2022-08-03T19:35:51.610Z,26.17
2022-08-03T19:38:28.755Z,26.06
2022-08-03T19:41:03.887Z,25.88
2022-08-03T19:46:31.731Z,25.67
2022-08-03T19:52:01.058Z,25.26
2022-08-03T19:54:45.508Z,25.02
2022-08-03T19:57:27.230Z,24.88
2022-08-03T19:59:57.930Z,24.80
2022-08-03T20:02:29.757Z,24.87
2022-08-03T20:05:00.518Z,24.79
2022-08-03T20:07:32.372Z,24.79
2022-08-03T20:10:02.989Z,24.73
2022-08-03T20:12:39.402Z,24.62
2022-08-03T20:15:11.495Z,24.50
2022-08-03T20:17:56.126Z,24.18
2022-08-03T20:20:29.443Z,24.35
2022-08-03T20:23:00.850Z,24.41
2022-08-03T20:25:38.041Z,24.16
2022-08-03T20:28:14.129Z,24.18
2022-08-03T20:30:47.476Z,24.21
2022-08-03T20:33:18.379Z,24.10
2022-08-03T20:35:49.936Z,24.02
2022-08-03T20:38:20.393Z,23.98
2022-08-03T20:40:59.200Z,23.92
2022-08-03T20:43:30.220Z,23.88
2022-08-03T20:46:31.802Z,23.85
2022-08-03T20:48:49.403Z,23.79
2022-08-03T20:51:20.194Z,23.62
2022-08-03T20:54:29.324Z,23.51
2022-08-03T20:57:04.182Z,23.42
2022-08-03T20:59:50.561Z,23.53
2022-08-03T21:02:29.882Z,23.53
2022-08-03T21:05:03.702Z,23.50
2022-08-03T21:10:33.606Z,23.54
2022-08-03T21:12:57.900Z,29.51
2022-08-03T21:13:04.405Z,28.71
2022-08-03T21:13:08.030Z,23.47
2022-08-03T21:13:08.996Z,25.52
2022-08-03T21:13:09.487Z,25.79
2022-08-03T21:16:13.135Z,23.51
2022-08-03T21:18:47.343Z,23.37
2022-08-03T21:21:19.605Z,23.29
2022-08-03T21:23:52.698Z,23.25
2022-08-03T21:26:23.997Z,23.23
2022-08-03T21:28:55.739Z,23.34
2022-08-03T21:31:27.787Z,23.12
2022-08-03T21:33:58.124Z,23.16
2022-08-03T21:36:29.354Z,22.87
2022-08-03T21:39:00.449Z,22.92
2022-08-03T21:41:32.397Z,22.86
2022-08-03T21:44:02.494Z,22.91
2022-08-03T21:46:37.906Z,22.94
2022-08-03T21:50:05.454Z,22.88
2022-08-03T21:52:04.051Z,22.93
2022-08-03T21:54:36.574Z,22.92
2022-08-03T21:57:09.867Z,22.82
2022-08-03T21:59:42.095Z,22.81
2022-08-03T22:02:22.508Z,22.75
2022-08-03T22:04:56.987Z,22.63
2022-08-03T22:07:29.811Z,22.59
2022-08-03T22:10:00.734Z,22.62
2022-08-03T22:12:32.071Z,22.64
2022-08-03T22:15:04.221Z,22.52
2022-08-03T22:17:55.936Z,22.48
2022-08-03T22:20:26.786Z,22.50
2022-08-03T22:23:00.402Z,22.44
2022-08-03T22:25:31.419Z,22.29
2022-08-03T22:28:03.323Z,22.25
2022-08-03T22:30:33.346Z,22.26
2022-08-03T22:33:11.078Z,22.27
2022-08-03T22:35:46.484Z,22.29
2022-08-03T22:38:18.804Z,22.35
2022-08-03T22:40:51.139Z,22.29
2022-08-03T22:43:24.306Z,22.14
2022-08-03T22:46:10.138Z,22.02
2022-08-03T22:48:45.572Z,21.97
2022-08-03T22:51:16.555Z,22.12
2022-08-03T22:53:47.313Z,21.92
2022-08-03T22:56:16.879Z,21.91
2022-08-03T22:58:46.258Z,21.83
2022-08-03T23:01:19.512Z,21.80
2022-08-03T23:04:02.233Z,21.76
2022-08-03T23:06:36.165Z,21.83
2022-08-03T23:09:10.141Z,21.79
2022-08-03T23:11:45.598Z,21.76
2022-08-03T23:14:17.310Z,21.84
2022-08-03T23:16:47.874Z,21.82
2022-08-03T23:19:25.036Z,21.76
2022-08-03T23:22:02.596Z,21.73
2022-08-03T23:24:36.953Z,21.79
2022-08-03T23:27:07.246Z,21.72
2022-08-03T23:29:37.676Z,21.78
2022-08-03T23:32:08.052Z,21.84
2022-08-03T23:34:58.711Z,21.79
2022-08-03T23:37:28.368Z,21.84
2022-08-03T23:39:59.616Z,21.80
2022-08-03T23:42:30.183Z,21.85
2022-08-03T23:45:06.145Z,21.71
2022-08-03T23:47:46.945Z,21.91
2022-08-03T23:50:18.583Z,21.98
2022-08-03T23:52:58.938Z,21.92
2022-08-03T23:55:42.335Z,21.95
2022-08-03T23:58:23.953Z,21.98
